Flight Track Log - Related Links

Times and Time Zones

All times are in EDT time to prevent confusion due to time zone crossing. See the EJA929 flight status page for this flight to view local times or setup timezone preferences in your user account.

Time Position Orientation Groundspeed Altitude Reporting Facility
EDT Latitude Longitude Course Direction KTS MPH feet Rate Location/Type
Sat 11:47:10 AM 34.1739 -118.4803 93° East 200 230 2,000  Level Los Angeles Center
Sat 11:48:12 AM 34.1714 -118.4242 93° East 228 262 3,500 2,195 Climbing Los Angeles Center
Sat 11:49:13 AM 34.2233 -118.4567 333° Northwest 220 253 6,500 2,683 Climbing Los Angeles Center
Sat 11:50:15 AM 34.2650 -118.4914 325° Northwest 224 258 9,000 2,129 Climbing Los Angeles Center
Sat 11:51:17 AM 34.3469 -118.4361 29° Northeast 302 348 10,900 1,935 Climbing Los Angeles Center
Sat 11:52:19 AM 34.4419 -118.3508 37° Northeast 352 405 13,000 1,854 Climbing Los Angeles Center
Sat 11:53:20 AM 34.5117 -118.2564 48° Northeast 373 429 14,700 1,659 Climbing Los Angeles Center
Sat 11:54:22 AM 34.5778 -118.1500 53° Northeast 392 451 16,400 1,597 Climbing Los Angeles Center
Sat 11:55:24 AM 34.6328 -118.0425 58° Northeast 394 453 18,000 1,694 Climbing Los Angeles Center
Sat 11:56:26 AM 34.6506 -117.8892 82° East 403 464 19,900 1,694 Climbing Los Angeles Center
Sat 11:57:28 AM 34.6669 -117.7528 82° East 411 473 21,500 1,452 Climbing Los Angeles Center
Sat 11:58:30 AM 34.7014 -117.6147 73° East 429 494 22,900 1,156 Climbing Los Angeles Center
Sat 11:59:43 AM 34.7375 -117.4714 73° East 446 513 24,100 926 Climbing Los Angeles Center
Sat 12:00:46 PM 34.7833 -117.2900 73° East 471 542 25,000 435 Climbing Los Angeles Center
Sat 12:01:47 PM 34.8386 -117.0978 71° East 507 583 25,000 -49 Level Los Angeles Center
Sat 12:02:49 PM 34.8981 -116.9442 65° Northeast 506 582 24,900 -435 Descending Los Angeles Center
Sat 12:03:51 PM 34.9569 -116.7872 65° Northeast 511 588 24,100 -435 Descending Los Angeles Center
Sat 12:04:53 PM 35.0036 -116.6628 65° Northeast 507 583 24,000 -48 Descending Los Angeles Center
Sat 12:05:55 PM 35.0719 -116.4831 65° Northeast 494 568 24,000  Level Los Angeles Center
Sat 12:06:56 PM 35.1400 -116.3525 57° Northeast 470 541 24,000 -1,268 Level Los Angeles Center
Sat 12:07:58 PM 35.2472 -116.2172 46° Northeast 461 531 21,400 -2,129 Descending Los Angeles Center
Sat 12:09:00 PM 35.3364 -116.1058 46° Northeast 459 528 19,600 -1,645 Descending Los Angeles Center
Sat 12:10:02 PM 35.4200 -116.0014 45° Northeast 430 495 18,000 -1,483 Descending Los Angeles Center
Sat 12:10:29 PM 35.4561 -115.9589 44° Northeast 421 484 17,400 -1,355 Descending Los Angeles Center
Sat 12:11:04 PM 35.4906 -115.9103 49° Northeast 388 447 16,600 -1,667 Descending Los Angeles Center
Sat 12:11:05 PM 35.5036 -115.8989 35° Northeast 364 419 16,400 -1,355 Descending Los Angeles Center
Sat 12:12:06 PM 35.5689 -115.8203 44° Northeast 332 382 15,200 -1,279 Descending Los Angeles Center
Sat 12:13:07 PM 35.6344 -115.7331 47° Northeast 352 405 13,800 -1,033 Descending Los Angeles Center
Sat 12:14:08 PM 35.7039 -115.6447 46° Northeast 355 409 13,100 -677 Descending Los Angeles Center
Sat 12:14:09 PM 35.7025 -115.6422 124° Southeast 357 411 13,100 -98 Level Los Angeles Center
Sat 12:15:09 PM 35.7797 -115.5753 35° Northeast 348 400 13,000  Descending Los Angeles Center
Sat 12:15:11 PM 35.7872 -115.5722 18° North 350 403 13,100  Climbing Los Angeles Center
Sat 12:16:13 PM 35.8822 -115.5647 North 345 397 13,000 -50 Descending Los Angeles Center
Sat 12:17:11 PM 35.9517 -115.5011 37° Northeast 328 377 13,000 97 Level Los Angeles Center
Sat 12:17:15 PM 35.9478 -115.5069 231° Southwest 324 373 13,100 -1,180 Climbing Los Angeles Center
Sat 12:18:12 PM 36.0078 -115.4114 52° Northeast 325 374 11,800 -1,452 Descending Los Angeles Center
Sat 12:18:17 PM 36.0119 -115.4019 61° Northeast 322 371 11,600 -1,600 Descending Los Angeles Center
Sat 12:19:12 PM 36.0269 -115.3200 77° East 284 327 10,200 -1,475 Descending Los Angeles Center
Sat 12:19:18 PM 36.0256 -115.3075 98° East 297 342 10,100 -794 Descending Los Angeles Center
Sat 12:20:20 PM 36.0189 -115.2244 96° East 258 297 9,300 -726 Descending Los Angeles Center
Sat 12:21:22 PM 36.0144 -115.1447 94° East 238 274 8,600 -730 Descending Los Angeles Center
Sat 12:22:15 PM 36.0111 -115.0781 94° East 192 221 7,900 -677 Descending Los Angeles Center
Sat 12:22:24 PM 36.0108 -115.0744 95° East 216 249 7,900 -1,200 Level Los Angeles Center
Sat 12:23:10 PM 36.0517 -115.0564 20° North 192 221 6,800 -1,258 Descending Los Angeles Center
Sat 12:23:26 PM 36.0575 -115.0514 35° Northeast 202 232 6,600 -692 Descending Los Angeles Center
Sat 12:24:28 PM 36.1186 -115.0364 11° North 189 217 5,900 -968 Descending Los Angeles Center
Sat 12:25:30 PM 36.1406 -115.0878 298° West 177 204 4,600 -1,364 Descending Los Angeles Center
Sat 12:26:18 PM 36.1328 -115.1308 257° West 147 169 3,400 -1,355 Descending Los Angeles Center
Sat 12:26:32 PM 36.1303 -115.1339 225° Southwest 153 176 3,200 -1,180 Descending Los Angeles Center
Sat 12:27:19 PM 36.0992 -115.1553 209° Southwest 135 155 2,200 -871 Descending Los Angeles Center
Sat 12:27:34 PM 36.0919 -115.1572 192° South 150 173 2,300 400 Climbing Los Angeles Center
Sat 12:29:00 PM 36.0801 -115.1523 95° East  Level Estimated
Sat 12:36:00 PM 36.0801 -115.1523 270° West  Level Estimated

Login

Don't have an account? Register now (free) for customized features, flight alerts, and more!